sensor_id;sensor_type;location;lat;lon;timestamp;P1;durP1;ratioP1;P2;durP2;ratioP2
28160;SDS011;15448;51.956;7.670;2022-08-01T12:07:13;10.70;;;10.30;;
28160;SDS011;15448;51.956;7.670;2022-08-01T12:09:39;11.33;;;10.40;;
28160;SDS011;15448;51.956;7.670;2022-08-01T12:12:05;12.47;;;11.87;;
28160;SDS011;15448;51.956;7.670;2022-08-01T12:14:31;12.20;;;10.40;;
28160;SDS011;15448;51.956;7.670;2022-08-01T12:16:57;10.90;;;10.50;;
28160;SDS011;15448;51.956;7.670;2022-08-01T12:19:23;12.17;;;11.10;;
28160;SDS011;15448;51.956;7.670;2022-08-01T12:24:51;12.13;;;11.33;;
28160;SDS011;15448;51.956;7.670;2022-08-01T12:27:23;14.53;;;12.10;;
28160;SDS011;15448;51.956;7.670;2022-08-01T12:29:53;11.80;;;11.20;;
28160;SDS011;15448;51.956;7.670;2022-08-01T12:32:30;11.60;;;11.10;;
28160;SDS011;15448;51.956;7.670;2022-08-01T12:35:01;12.03;;;11.53;;
28160;SDS011;15448;51.956;7.670;2022-08-01T12:37:35;11.33;;;10.90;;
28160;SDS011;15448;51.956;7.670;2022-08-01T12:40:12;11.20;;;10.70;;
28160;SDS011;15448;51.956;7.670;2022-08-01T12:42:38;12.03;;;11.43;;
28160;SDS011;15448;51.956;7.670;2022-08-01T12:45:05;12.67;;;11.93;;
28160;SDS011;15448;51.956;7.670;2022-08-01T12:47:36;12.60;;;11.97;;
28160;SDS011;15448;51.956;7.670;2022-08-01T12:50:05;13.50;;;12.63;;
28160;SDS011;15448;51.956;7.670;2022-08-01T12:52:32;12.97;;;12.37;;
28160;SDS011;15448;51.956;7.670;2022-08-01T12:55:05;11.93;;;11.50;;
28160;SDS011;15448;51.956;7.670;2022-08-01T12:57:33;13.90;;;13.00;;
28160;SDS011;15448;51.956;7.670;2022-08-01T13:00:06;19.23;;;14.37;;
28160;SDS011;15448;51.956;7.670;2022-08-01T13:02:32;16.87;;;15.10;;
28160;SDS011;15448;51.956;7.670;2022-08-01T13:04:59;18.50;;;14.60;;
28160;SDS011;15448;51.956;7.670;2022-08-01T13:07:34;15.37;;;13.73;;
28160;SDS011;15448;51.956;7.670;2022-08-01T13:10:12;14.20;;;12.90;;
28160;SDS011;15448;51.956;7.670;2022-08-01T13:12:38;30.17;;;17.07;;
28160;SDS011;15448;51.956;7.670;2022-08-01T13:15:22;33.00;;;17.63;;
28160;SDS011;15448;51.956;7.670;2022-08-01T13:17:53;16.33;;;14.73;;
28160;SDS011;15448;51.956;7.670;2022-08-01T13:20:23;16.17;;;14.20;;
28160;SDS011;15448;51.956;7.670;2022-08-01T13:22:49;19.13;;;15.27;;
28160;SDS011;15448;51.956;7.670;2022-08-01T13:25:16;14.03;;;12.67;;
28160;SDS011;15448;51.956;7.670;2022-08-01T13:27:43;15.50;;;14.13;;
28160;SDS011;15448;51.956;7.670;2022-08-01T13:30:15;14.20;;;12.90;;
28160;SDS011;15448;51.956;7.670;2022-08-01T13:32:43;14.50;;;11.70;;
28160;SDS011;15448;51.956;7.670;2022-08-01T13:35:10;13.90;;;11.20;;
28160;SDS011;15448;51.956;7.670;2022-08-01T13:37:38;12.20;;;10.90;;
28160;SDS011;15448;51.956;7.670;2022-08-01T13:40:08;11.80;;;11.00;;
28160;SDS011;15448;51.956;7.670;2022-08-01T13:42:35;13.33;;;12.20;;
28160;SDS011;15448;51.956;7.670;2022-08-01T13:45:00;13.30;;;12.00;;
28160;SDS011;15448;51.956;7.670;2022-08-01T13:47:27;12.03;;;11.33;;
28160;SDS011;15448;51.956;7.670;2022-08-01T13:49:52;11.40;;;10.70;;
28160;SDS011;15448;51.956;7.670;2022-08-01T13:52:18;12.33;;;11.20;;
28160;SDS011;15448;51.956;7.670;2022-08-01T13:54:43;14.90;;;13.60;;
28160;SDS011;15448;51.956;7.670;2022-08-01T13:57:09;12.60;;;11.97;;
28160;SDS011;15448;51.956;7.670;2022-08-01T13:59:34;13.93;;;12.80;;
28160;SDS011;15448;51.956;7.670;2022-08-01T14:02:00;13.73;;;12.40;;
28160;SDS011;15448;51.956;7.670;2022-08-01T14:04:26;12.50;;;11.70;;
28160;SDS011;15448;51.956;7.670;2022-08-01T14:06:52;12.53;;;11.93;;
28160;SDS011;15448;51.956;7.670;2022-08-01T14:09:18;13.07;;;12.27;;
28160;SDS011;15448;51.956;7.670;2022-08-01T14:11:44;14.63;;;13.43;;
28160;SDS011;15448;51.956;7.670;2022-08-01T14:14:11;13.33;;;12.60;;
28160;SDS011;15448;51.956;7.670;2022-08-01T14:16:37;12.70;;;11.90;;
28160;SDS011;15448;51.956;7.670;2022-08-01T14:19:02;13.63;;;12.50;;
28160;SDS011;15448;51.956;7.670;2022-08-01T14:21:28;12.93;;;12.33;;
28160;SDS011;15448;51.956;7.670;2022-08-01T14:23:54;13.60;;;12.77;;
28160;SDS011;15448;51.956;7.670;2022-08-01T14:26:19;16.73;;;13.80;;
28160;SDS011;15448;51.956;7.670;2022-08-01T14:28:45;14.17;;;13.10;;
28160;SDS011;15448;51.956;7.670;2022-08-01T14:31:10;13.87;;;13.13;;
28160;SDS011;15448;51.956;7.670;2022-08-01T14:33:36;14.10;;;13.07;;
28160;SDS011;15448;51.956;7.670;2022-08-01T14:36:02;14.63;;;13.40;;
28160;SDS011;15448;51.956;7.670;2022-08-01T14:38:28;14.50;;;13.70;;
28160;SDS011;15448;51.956;7.670;2022-08-01T14:40:54;13.53;;;12.67;;
28160;SDS011;15448;51.956;7.670;2022-08-01T14:43:20;13.43;;;12.60;;
28160;SDS011;15448;51.956;7.670;2022-08-01T14:45:46;14.40;;;13.70;;
28160;SDS011;15448;51.956;7.670;2022-08-01T14:48:16;14.27;;;12.80;;
28160;SDS011;15448;51.956;7.670;2022-08-01T14:50:42;13.80;;;12.90;;
28160;SDS011;15448;51.956;7.670;2022-08-01T14:53:08;16.00;;;14.40;;
28160;SDS011;15448;51.956;7.670;2022-08-01T14:55:34;15.83;;;14.33;;
28160;SDS011;15448;51.956;7.670;2022-08-01T14:57:59;15.50;;;14.47;;
28160;SDS011;15448;51.956;7.670;2022-08-01T15:00:25;17.77;;;14.37;;
28160;SDS011;15448;51.956;7.670;2022-08-01T15:02:50;18.27;;;14.23;;
28160;SDS011;15448;51.956;7.670;2022-08-01T15:05:16;15.20;;;13.90;;
28160;SDS011;15448;51.956;7.670;2022-08-01T15:07:41;14.87;;;13.97;;
28160;SDS011;15448;51.956;7.670;2022-08-01T15:10:07;15.70;;;14.50;;
28160;SDS011;15448;51.956;7.670;2022-08-01T15:12:34;14.40;;;13.57;;
28160;SDS011;15448;51.956;7.670;2022-08-01T15:14:59;28.00;;;15.03;;
28160;SDS011;15448;51.956;7.670;2022-08-01T15:17:29;14.47;;;13.47;;
28160;SDS011;15448;51.956;7.670;2022-08-01T15:19:58;13.50;;;12.80;;
28160;SDS011;15448;51.956;7.670;2022-08-01T15:22:25;14.77;;;13.53;;
28160;SDS011;15448;51.956;7.670;2022-08-01T15:24:53;14.13;;;12.73;;
28160;SDS011;15448;51.956;7.670;2022-08-01T15:27:20;15.07;;;13.63;;
28160;SDS011;15448;51.956;7.670;2022-08-01T15:29:48;15.47;;;14.20;;
28160;SDS011;15448;51.956;7.670;2022-08-01T15:32:14;24.80;;;14.70;;
28160;SDS011;15448;51.956;7.670;2022-08-01T15:34:40;15.90;;;14.67;;
28160;SDS011;15448;51.956;7.670;2022-08-01T15:37:08;15.90;;;14.50;;
28160;SDS011;15448;51.956;7.670;2022-08-01T15:39:35;15.30;;;13.93;;
28160;SDS011;15448;51.956;7.670;2022-08-01T15:42:02;16.57;;;13.63;;
28160;SDS011;15448;51.956;7.670;2022-08-01T15:44:36;14.63;;;13.63;;
28160;SDS011;15448;51.956;7.670;2022-08-01T15:47:02;14.60;;;13.83;;
28160;SDS011;15448;51.956;7.670;2022-08-01T15:49:28;15.87;;;14.70;;
28160;SDS011;15448;51.956;7.670;2022-08-01T15:51:54;14.90;;;13.70;;
28160;SDS011;15448;51.956;7.670;2022-08-01T15:54:20;15.20;;;14.07;;
28160;SDS011;15448;51.956;7.670;2022-08-01T15:56:45;14.90;;;13.93;;
28160;SDS011;15448;51.956;7.670;2022-08-01T15:59:11;15.20;;;14.20;;
28160;SDS011;15448;51.956;7.670;2022-08-01T16:01:37;14.80;;;13.70;;
28160;SDS011;15448;51.956;7.670;2022-08-01T16:04:04;14.90;;;13.90;;
28160;SDS011;15448;51.956;7.670;2022-08-01T16:06:29;14.47;;;13.73;;
28160;SDS011;15448;51.956;7.670;2022-08-01T16:08:55;14.57;;;13.87;;
28160;SDS011;15448;51.956;7.670;2022-08-01T16:11:21;14.17;;;13.03;;
28160;SDS011;15448;51.956;7.670;2022-08-01T16:13:48;15.50;;;14.27;;
28160;SDS011;15448;51.956;7.670;2022-08-01T16:16:13;16.00;;;13.97;;
28160;SDS011;15448;51.956;7.670;2022-08-01T16:18:43;14.10;;;13.40;;
28160;SDS011;15448;51.956;7.670;2022-08-01T16:21:09;14.43;;;13.17;;
28160;SDS011;15448;51.956;7.670;2022-08-01T16:23:36;14.20;;;13.40;;
28160;SDS011;15448;51.956;7.670;2022-08-01T16:26:03;14.73;;;13.63;;
28160;SDS011;15448;51.956;7.670;2022-08-01T16:28:28;14.53;;;13.43;;
28160;SDS011;15448;51.956;7.670;2022-08-01T16:30:54;15.47;;;14.23;;
28160;SDS011;15448;51.956;7.670;2022-08-01T16:33:19;15.77;;;15.00;;
28160;SDS011;15448;51.956;7.670;2022-08-01T16:35:45;15.20;;;14.17;;
28160;SDS011;15448;51.956;7.670;2022-08-01T16:38:11;14.10;;;13.30;;
28160;SDS011;15448;51.956;7.670;2022-08-01T16:40:37;14.37;;;13.73;;
28160;SDS011;15448;51.956;7.670;2022-08-01T16:43:03;14.90;;;13.70;;
28160;SDS011;15448;51.956;7.670;2022-08-01T16:45:29;14.30;;;13.50;;
28160;SDS011;15448;51.956;7.670;2022-08-01T16:47:55;14.70;;;13.80;;
28160;SDS011;15448;51.956;7.670;2022-08-01T16:50:21;15.47;;;14.50;;
28160;SDS011;15448;51.956;7.670;2022-08-01T16:52:47;14.57;;;13.83;;
28160;SDS011;15448;51.956;7.670;2022-08-01T16:55:13;15.90;;;14.57;;
28160;SDS011;15448;51.956;7.670;2022-08-01T16:57:39;13.60;;;12.90;;
28160;SDS011;15448;51.956;7.670;2022-08-01T17:00:12;14.40;;;13.63;;
28160;SDS011;15448;51.956;7.670;2022-08-01T17:02:39;14.07;;;13.10;;
28160;SDS011;15448;51.956;7.670;2022-08-01T17:05:06;15.50;;;14.40;;
28160;SDS011;15448;51.956;7.670;2022-08-01T17:07:33;14.50;;;13.50;;
28160;SDS011;15448;51.956;7.670;2022-08-01T17:10:00;15.60;;;14.30;;
28160;SDS011;15448;51.956;7.670;2022-08-01T17:12:26;14.57;;;13.43;;
28160;SDS011;15448;51.956;7.670;2022-08-01T17:14:52;14.50;;;13.40;;
28160;SDS011;15448;51.956;7.670;2022-08-01T17:17:18;14.17;;;13.20;;
28160;SDS011;15448;51.956;7.670;2022-08-01T17:19:44;13.90;;;12.90;;
28160;SDS011;15448;51.956;7.670;2022-08-01T17:22:10;14.10;;;13.07;;
28160;SDS011;15448;51.956;7.670;2022-08-01T17:24:36;13.67;;;12.87;;
28160;SDS011;15448;51.956;7.670;2022-08-01T17:27:01;13.43;;;12.70;;
28160;SDS011;15448;51.956;7.670;2022-08-01T17:29:27;15.70;;;14.43;;
28160;SDS011;15448;51.956;7.670;2022-08-01T17:31:53;14.20;;;13.13;;
28160;SDS011;15448;51.956;7.670;2022-08-01T17:34:19;13.73;;;12.80;;
28160;SDS011;15448;51.956;7.670;2022-08-01T17:36:44;14.70;;;13.80;;
28160;SDS011;15448;51.956;7.670;2022-08-01T17:39:10;15.97;;;14.40;;
28160;SDS011;15448;51.956;7.670;2022-08-01T17:41:37;13.77;;;12.77;;
28160;SDS011;15448;51.956;7.670;2022-08-01T17:44:04;13.47;;;12.67;;
28160;SDS011;15448;51.956;7.670;2022-08-01T17:46:29;18.60;;;13.20;;
28160;SDS011;15448;51.956;7.670;2022-08-01T17:48:55;14.00;;;12.90;;
28160;SDS011;15448;51.956;7.670;2022-08-01T17:51:21;27.10;;;13.70;;
28160;SDS011;15448;51.956;7.670;2022-08-01T17:53:47;14.93;;;14.07;;
28160;SDS011;15448;51.956;7.670;2022-08-01T17:56:13;14.87;;;13.87;;
28160;SDS011;15448;51.956;7.670;2022-08-01T17:58:39;15.63;;;14.10;;
28160;SDS011;15448;51.956;7.670;2022-08-01T18:01:04;13.30;;;12.50;;
28160;SDS011;15448;51.956;7.670;2022-08-01T18:03:30;13.30;;;12.50;;
28160;SDS011;15448;51.956;7.670;2022-08-01T18:06:00;14.23;;;13.03;;
28160;SDS011;15448;51.956;7.670;2022-08-01T18:08:26;12.53;;;11.90;;
28160;SDS011;15448;51.956;7.670;2022-08-01T18:10:56;13.13;;;12.33;;
28160;SDS011;15448;51.956;7.670;2022-08-01T18:13:21;12.20;;;11.70;;
28160;SDS011;15448;51.956;7.670;2022-08-01T18:15:47;13.07;;;12.10;;
28160;SDS011;15448;51.956;7.670;2022-08-01T18:18:12;12.60;;;12.00;;
28160;SDS011;15448;51.956;7.670;2022-08-01T18:20:41;13.20;;;12.50;;
28160;SDS011;15448;51.956;7.670;2022-08-01T18:23:06;13.07;;;12.00;;
28160;SDS011;15448;51.956;7.670;2022-08-01T18:25:35;12.20;;;11.60;;
28160;SDS011;15448;51.956;7.670;2022-08-01T18:28:01;13.03;;;11.90;;
28160;SDS011;15448;51.956;7.670;2022-08-01T18:30:27;12.83;;;12.00;;
28160;SDS011;15448;51.956;7.670;2022-08-01T18:32:53;12.67;;;11.60;;
28160;SDS011;15448;51.956;7.670;2022-08-01T18:35:19;15.77;;;14.17;;
28160;SDS011;15448;51.956;7.670;2022-08-01T18:37:46;12.03;;;11.53;;
28160;SDS011;15448;51.956;7.670;2022-08-01T18:40:12;12.20;;;11.60;;
28160;SDS011;15448;51.956;7.670;2022-08-01T18:42:38;13.10;;;11.70;;
28160;SDS011;15448;51.956;7.670;2022-08-01T18:45:04;12.47;;;11.73;;
28160;SDS011;15448;51.956;7.670;2022-08-01T18:47:30;13.00;;;11.83;;
28160;SDS011;15448;51.956;7.670;2022-08-01T18:49:55;11.87;;;11.17;;
28160;SDS011;15448;51.956;7.670;2022-08-01T18:52:21;11.60;;;11.10;;
28160;SDS011;15448;51.956;7.670;2022-08-01T18:54:46;12.17;;;11.67;;
28160;SDS011;15448;51.956;7.670;2022-08-01T18:57:12;12.77;;;11.80;;
28160;SDS011;15448;51.956;7.670;2022-08-01T18:59:38;12.77;;;11.80;;
28160;SDS011;15448;51.956;7.670;2022-08-01T19:02:03;12.27;;;11.50;;
28160;SDS011;15448;51.956;7.670;2022-08-01T19:04:29;12.20;;;11.47;;
28160;SDS011;15448;51.956;7.670;2022-08-01T19:06:54;13.50;;;12.30;;
28160;SDS011;15448;51.956;7.670;2022-08-01T19:09:20;12.10;;;11.40;;
28160;SDS011;15448;51.956;7.670;2022-08-01T19:11:47;13.10;;;11.90;;
28160;SDS011;15448;51.956;7.670;2022-08-01T19:14:12;12.73;;;11.83;;
28160;SDS011;15448;51.956;7.670;2022-08-01T19:16:38;13.20;;;12.00;;
28160;SDS011;15448;51.956;7.670;2022-08-01T19:19:03;14.47;;;12.90;;
28160;SDS011;15448;51.956;7.670;2022-08-01T19:21:30;12.73;;;11.90;;
28160;SDS011;15448;51.956;7.670;2022-08-01T19:23:56;12.60;;;11.67;;
28160;SDS011;15448;51.956;7.670;2022-08-01T19:26:42;12.73;;;11.77;;
28160;SDS011;15448;51.956;7.670;2022-08-01T19:29:20;13.23;;;12.33;;
28160;SDS011;15448;51.956;7.670;2022-08-01T19:31:49;12.90;;;12.13;;
28160;SDS011;15448;51.956;7.670;2022-08-01T19:34:16;12.60;;;11.40;;
28160;SDS011;15448;51.956;7.670;2022-08-01T19:36:44;12.30;;;11.37;;
28160;SDS011;15448;51.956;7.670;2022-08-01T19:39:14;11.97;;;11.20;;
28160;SDS011;15448;51.956;7.670;2022-08-01T19:41:43;12.50;;;11.70;;
28160;SDS011;15448;51.956;7.670;2022-08-01T19:44:10;11.67;;;11.07;;
28160;SDS011;15448;51.956;7.670;2022-08-01T19:46:38;11.83;;;11.13;;
28160;SDS011;15448;51.956;7.670;2022-08-01T19:49:04;13.07;;;12.10;;
28160;SDS011;15448;51.956;7.670;2022-08-01T19:51:30;12.10;;;11.50;;
28160;SDS011;15448;51.956;7.670;2022-08-01T19:54:03;11.70;;;11.00;;
28160;SDS011;15448;51.956;7.670;2022-08-01T19:56:31;14.60;;;13.10;;
28160;SDS011;15448;51.956;7.670;2022-08-01T19:59:05;13.07;;;12.17;;
28160;SDS011;15448;51.956;7.670;2022-08-01T20:01:34;13.47;;;12.63;;
28160;SDS011;15448;51.956;7.670;2022-08-01T20:04:01;12.63;;;11.83;;
28160;SDS011;15448;51.956;7.670;2022-08-01T20:06:30;13.37;;;12.57;;
28160;SDS011;15448;51.956;7.670;2022-08-01T20:08:57;12.63;;;12.00;;
28160;SDS011;15448;51.956;7.670;2022-08-01T20:11:24;12.73;;;11.80;;
28160;SDS011;15448;51.956;7.670;2022-08-01T20:13:50;14.37;;;13.20;;
28160;SDS011;15448;51.956;7.670;2022-08-01T20:16:16;13.20;;;12.60;;
28160;SDS011;15448;51.956;7.670;2022-08-01T20:18:42;12.97;;;12.40;;
28160;SDS011;15448;51.956;7.670;2022-08-01T20:21:09;14.63;;;13.60;;
28160;SDS011;15448;51.956;7.670;2022-08-01T20:23:37;12.73;;;11.90;;
28160;SDS011;15448;51.956;7.670;2022-08-01T20:26:04;13.00;;;12.30;;
28160;SDS011;15448;51.956;7.670;2022-08-01T20:28:29;13.50;;;12.57;;
28160;SDS011;15448;51.956;7.670;2022-08-01T20:31:00;13.13;;;11.93;;
28160;SDS011;15448;51.956;7.670;2022-08-01T20:33:26;13.13;;;12.30;;
28160;SDS011;15448;51.956;7.670;2022-08-01T20:35:52;13.03;;;12.13;;
28160;SDS011;15448;51.956;7.670;2022-08-01T20:38:19;12.50;;;11.80;;
28160;SDS011;15448;51.956;7.670;2022-08-01T20:40:46;13.27;;;12.57;;
28160;SDS011;15448;51.956;7.670;2022-08-01T20:43:14;13.60;;;12.80;;
28160;SDS011;15448;51.956;7.670;2022-08-01T20:45:45;13.33;;;12.43;;
28160;SDS011;15448;51.956;7.670;2022-08-01T20:48:12;14.23;;;13.03;;
28160;SDS011;15448;51.956;7.670;2022-08-01T20:50:39;13.70;;;12.60;;
28160;SDS011;15448;51.956;7.670;2022-08-01T20:53:25;13.23;;;12.23;;
28160;SDS011;15448;51.956;7.670;2022-08-01T20:56:05;14.33;;;12.40;;
28160;SDS011;15448;51.956;7.670;2022-08-01T21:01:20;14.57;;;13.00;;
28160;SDS011;15448;51.956;7.670;2022-08-01T21:06:27;14.37;;;13.13;;
28160;SDS011;15448;51.956;7.670;2022-08-01T21:08:59;17.27;;;13.63;;
28160;SDS011;15448;51.956;7.670;2022-08-01T21:11:28;12.27;;;11.67;;
28160;SDS011;15448;51.956;7.670;2022-08-01T21:14:04;13.50;;;12.30;;
28160;SDS011;15448;51.956;7.670;2022-08-01T21:16:36;17.63;;;12.33;;
28160;SDS011;15448;51.956;7.670;2022-08-01T21:19:13;15.40;;;14.20;;
28160;SDS011;15448;51.956;7.670;2022-08-01T21:24:45;14.73;;;13.30;;
28160;SDS011;15448;51.956;7.670;2022-08-01T21:27:17;13.97;;;12.53;;
28160;SDS011;15448;51.956;7.670;2022-08-01T21:29:45;13.60;;;12.60;;
28160;SDS011;15448;51.956;7.670;2022-08-01T21:32:13;13.40;;;12.60;;
28160;SDS011;15448;51.956;7.670;2022-08-01T21:34:40;13.70;;;12.60;;
28160;SDS011;15448;51.956;7.670;2022-08-01T21:37:10;19.47;;;13.27;;
28160;SDS011;15448;51.956;7.670;2022-08-01T21:39:38;14.20;;;13.00;;
28160;SDS011;15448;51.956;7.670;2022-08-01T21:42:07;15.57;;;14.27;;
28160;SDS011;15448;51.956;7.670;2022-08-01T21:44:32;14.27;;;13.03;;
28160;SDS011;15448;51.956;7.670;2022-08-01T21:46:58;14.83;;;13.30;;
28160;SDS011;15448;51.956;7.670;2022-08-01T21:49:25;13.73;;;13.00;;
28160;SDS011;15448;51.956;7.670;2022-08-01T21:52:12;14.83;;;13.40;;
28160;SDS011;15448;51.956;7.670;2022-08-01T22:00:29;13.63;;;12.63;;
28160;SDS011;15448;51.956;7.670;2022-08-01T22:03:07;13.23;;;12.00;;
28160;SDS011;15448;51.956;7.670;2022-08-01T22:05:50;13.80;;;12.63;;
28160;SDS011;15448;51.956;7.670;2022-08-01T22:08:22;13.53;;;12.50;;
28160;SDS011;15448;51.956;7.670;2022-08-01T22:10:56;14.00;;;12.77;;
28160;SDS011;15448;51.956;7.670;2022-08-01T22:13:27;12.77;;;11.90;;
28160;SDS011;15448;51.956;7.670;2022-08-01T22:15:56;13.87;;;12.93;;
28160;SDS011;15448;51.956;7.670;2022-08-01T22:18:22;13.43;;;12.53;;
28160;SDS011;15448;51.956;7.670;2022-08-01T22:20:50;13.37;;;12.40;;
28160;SDS011;15448;51.956;7.670;2022-08-01T22:23:17;13.57;;;12.50;;
28160;SDS011;15448;51.956;7.670;2022-08-01T22:25:44;13.50;;;12.50;;
28160;SDS011;15448;51.956;7.670;2022-08-01T22:28:10;13.30;;;12.60;;
28160;SDS011;15448;51.956;7.670;2022-08-01T22:30:40;13.97;;;12.90;;
28160;SDS011;15448;51.956;7.670;2022-08-01T22:33:05;13.93;;;12.90;;
28160;SDS011;15448;51.956;7.670;2022-08-01T22:35:32;13.77;;;12.70;;
28160;SDS011;15448;51.956;7.670;2022-08-01T22:37:59;14.53;;;13.30;;
28160;SDS011;15448;51.956;7.670;2022-08-01T22:40:25;14.73;;;13.63;;
28160;SDS011;15448;51.956;7.670;2022-08-01T22:42:54;13.30;;;12.30;;
28160;SDS011;15448;51.956;7.670;2022-08-01T22:45:29;13.93;;;12.63;;
28160;SDS011;15448;51.956;7.670;2022-08-01T22:48:24;17.40;;;13.23;;
28160;SDS011;15448;51.956;7.670;2022-08-01T22:50:56;13.07;;;12.50;;
28160;SDS011;15448;51.956;7.670;2022-08-01T22:53:40;13.20;;;12.60;;
28160;SDS011;15448;51.956;7.670;2022-08-01T22:56:17;13.47;;;12.53;;
28160;SDS011;15448;51.956;7.670;2022-08-01T22:58:44;13.50;;;12.60;;
28160;SDS011;15448;51.956;7.670;2022-08-01T23:01:11;12.97;;;12.27;;
28160;SDS011;15448;51.956;7.670;2022-08-01T23:03:40;13.37;;;12.57;;
28160;SDS011;15448;51.956;7.670;2022-08-01T23:06:13;13.83;;;12.50;;
28160;SDS011;15448;51.956;7.670;2022-08-01T23:08:42;12.93;;;12.13;;
28160;SDS011;15448;51.956;7.670;2022-08-01T23:11:09;13.30;;;12.60;;
28160;SDS011;15448;51.956;7.670;2022-08-01T23:13:35;13.60;;;12.90;;
28160;SDS011;15448;51.956;7.670;2022-08-01T23:16:01;13.60;;;12.70;;
28160;SDS011;15448;51.956;7.670;2022-08-01T23:18:28;12.80;;;12.00;;
28160;SDS011;15448;51.956;7.670;2022-08-01T23:20:57;13.50;;;12.40;;
28160;SDS011;15448;51.956;7.670;2022-08-01T23:23:28;13.00;;;12.40;;
28160;SDS011;15448;51.956;7.670;2022-08-01T23:25:55;13.33;;;12.47;;
28160;SDS011;15448;51.956;7.670;2022-08-01T23:28:21;14.73;;;13.60;;
28160;SDS011;15448;51.956;7.670;2022-08-01T23:30:47;13.80;;;13.17;;
28160;SDS011;15448;51.956;7.670;2022-08-01T23:33:14;14.20;;;13.17;;
28160;SDS011;15448;51.956;7.670;2022-08-01T23:35:40;13.80;;;12.90;;
28160;SDS011;15448;51.956;7.670;2022-08-01T23:38:06;13.90;;;13.20;;
28160;SDS011;15448;51.956;7.670;2022-08-01T23:40:34;18.83;;;13.37;;
28160;SDS011;15448;51.956;7.670;2022-08-01T23:43:01;13.60;;;12.77;;
28160;SDS011;15448;51.956;7.670;2022-08-01T23:45:28;13.50;;;12.90;;
28160;SDS011;15448;51.956;7.670;2022-08-01T23:47:54;13.40;;;12.80;;
28160;SDS011;15448;51.956;7.670;2022-08-01T23:50:19;14.23;;;13.00;;
28160;SDS011;15448;51.956;7.670;2022-08-01T23:52:45;12.80;;;12.20;;
28160;SDS011;15448;51.956;7.670;2022-08-01T23:55:11;13.80;;;12.90;;
28160;SDS011;15448;51.956;7.670;2022-08-01T23:57:37;14.40;;;13.53;;
